Impacts TAF Board
For situational awareness. Not to be used for flight planning purposes.
IDs:

KBOS - Boston/Logan Intl, MA, US

Issued at 2335 UTC 05 Dec 2019
Updated at 0117 UTC 06 Dec 2019
Potential Impact None Slight Moderate High
Time0054Z 06/02Z 06/03Z 06/04Z 06/05Z 06/06Z 06/07Z 06/08Z 06/09Z 06/10Z 06/11Z 06/12Z 06/13Z 06/14Z>>
Type OBS PRVL PRVL PRVL PRVL PRVL PRVL PRVL PRVL PRVL PRVL PRVL PRVL PRVL
VIS 10 >6 >6 >6 >6 >6 >6 >6 >6 >6 >6 >6 >6 >6
CIG -- -- -- -- -- -- -- -- -- -- -- -- -- 80
Cover SCT SCT SCT SCT SCT SCT SCT SCT SCT SKC SKC SKC SKC BKN
FltCat VFR VFR VFR VFR VFR VFR VFR VFR VFR VFR VFR VFR VFR VFR
WX -- -- -- -- -- -- -- -- -- -- -- -- -- --
WDir 280 280 280 280 280 280 280 280 280 270 270 270 270 250
WSpd 11 12 12 12 12 12 12 12 12 10 10 10 10 10
WGst -- 19 19 19 19 19 19 19 19 -- -- -- -- --
Raw TAF
KBOS 052335Z 0600/0706 28012G19KT P6SM SCT050
  FM061000 27010KT P6SM SKC
  FM061400 25010KT P6SM BKN080
  FM062000 23010KT 2SM -SN BR FEW008 OVC012
  FM062200 26010KT 3SM -SN BR OVC015
  FM070300 31008KT P6SM BKN025


Raw METAR
KBOS 060054Z 28011KT 10SM SCT050 03/M08 A2983 RMK AO2 SLP101 T00281083
KBOS 052354Z 27013G21KT 10SM FEW035 FEW080 04/M08 A2980 RMK AO2 SLP091 T00391078 10072 20039 51035
KBOS 052254Z 28012KT 10SM FEW031 SCT070 04/M07 A2978 RMK AO2 SLP083 T00441072

METAR Board
Radar Display
Forecast Discussion
For situational awareness. Not to be used for flight planning purposes.